Time;durP1;ratioP1;P1;durP2;ratioP2;P2;SDS_P1;SDS_P2;PMS_P1;PMS_P2;Temp;Humidity;BMP_temperature;BMP_pressure;BME280_temperature;BME280_humidity;BME280_pressure;Samples;Min_cycle;Max_cycle;Signal;HPM_P1;HPM_P2
2023/10/03 00:02:07;;;;;;;23.17;7.10;;;20.20;99.90;;;;;;5075818;28;20032;-54
2023/10/03 00:04:34;;;;;;;22.08;7.53;;;20.20;99.90;;;;;;5093674;28;20032;-51
2023/10/03 00:07:00;;;;;;;22.08;6.95;;;20.30;99.90;;;;;;5093635;28;20219;-53
2023/10/03 00:09:26;;;;;;;21.20;7.18;;;20.30;99.90;;;;;;5093054;28;20115;-52
2023/10/03 00:11:51;;;;;;;22.52;6.90;;;20.30;99.90;;;;;;5093104;28;20196;-52
2023/10/03 00:14:18;;;;;;;23.52;7.72;;;20.40;99.90;;;;;;5093269;28;20082;-53
2023/10/03 00:16:44;;;;;;;21.48;7.38;;;20.40;99.90;;;;;;5093210;28;20032;-52
2023/10/03 00:19:10;;;;;;;28.83;7.65;;;20.30;99.90;;;;;;5092859;28;20119;-51
2023/10/03 00:21:36;;;;;;;21.92;7.53;;;20.40;99.90;;;;;;5074775;28;20115;-54
2023/10/03 00:24:02;;;;;;;24.85;7.88;;;20.40;99.90;;;;;;5093310;28;20127;-54
2023/10/03 00:26:28;;;;;;;26.45;8.15;;;20.40;99.90;;;;;;5093092;28;20032;-52
2023/10/03 00:28:56;;;;;;;23.67;7.93;;;20.50;99.90;;;;;;5093046;28;20039;-52
2023/10/03 00:31:22;;;;;;;22.77;7.32;;;20.50;99.90;;;;;;5074875;28;20031;-54
2023/10/03 00:33:49;;;;;;;21.40;8.02;;;20.50;99.90;;;;;;5074801;28;20127;-54
2023/10/03 00:36:17;;;;;;;21.50;7.65;;;20.50;99.90;;;;;;5093057;28;20028;-53
2023/10/03 00:38:42;;;;;;;21.88;6.93;;;20.50;99.90;;;;;;5074785;28;20489;-51
2023/10/03 00:41:08;;;;;;;21.92;7.97;;;20.50;99.90;;;;;;5074716;28;20253;-50
2023/10/03 00:43:34;;;;;;;20.50;7.10;;;20.60;99.90;;;;;;5074726;28;20028;-54
2023/10/03 00:46:00;;;;;;;21.73;6.90;;;20.50;99.90;;;;;;5093141;28;20256;-51
2023/10/03 00:48:27;;;;;;;24.65;7.45;;;20.50;99.90;;;;;;5092698;28;20034;-52
2023/10/03 00:50:55;;;;;;;20.73;6.68;;;20.60;99.90;;;;;;5073977;28;20031;-51
2023/10/03 00:53:22;;;;;;;20.27;6.82;;;20.50;99.90;;;;;;5074316;28;20043;-51
2023/10/03 00:55:47;;;;;;;22.45;7.13;;;20.50;99.90;;;;;;5074201;28;20399;-50
2023/10/03 01:00:49;;;;;;;20.75;8.05;;;20.60;99.90;;;;;;5091678;28;20038;-51
2023/10/03 01:03:27;;;;;;;25.83;8.07;;;20.60;99.90;;;;;;5092285;28;20088;-52
2023/10/03 01:05:53;;;;;;;17.35;6.45;;;20.50;99.90;;;;;;5092322;28;20040;-53
2023/10/03 01:08:19;;;;;;;23.85;7.13;;;20.50;99.90;;;;;;5092098;28;20031;-54
2023/10/03 01:10:45;;;;;;;20.75;6.85;;;20.60;99.90;;;;;;5073964;28;20047;-54
2023/10/03 01:13:13;;;;;;;18.83;6.85;;;20.50;99.90;;;;;;5073713;28;20497;-53
2023/10/03 01:15:40;;;;;;;19.48;6.95;;;20.50;99.90;;;;;;5074041;28;20047;-52
2023/10/03 01:18:11;;;;;;;18.23;6.30;;;20.50;99.90;;;;;;5074053;28;20044;-52
2023/10/03 01:20:48;;;;;;;21.38;7.05;;;20.50;99.90;;;;;;5073634;28;20036;-53
2023/10/03 01:23:15;;;;;;;22.73;7.18;;;20.50;99.90;;;;;;5092318;28;20032;-51
2023/10/03 01:25:43;;;;;;;;;;;20.50;99.90;;;;;;5092814;28;20028;-51
2023/10/03 01:28:12;;;;;;;20.52;6.72;;;20.50;99.90;;;;;;5091999;28;20399;-52
2023/10/03 01:30:40;;;;;;;23.98;7.65;;;20.50;99.90;;;;;;5073408;28;20020;-56
2023/10/03 01:33:07;;;;;;;19.77;6.60;;;20.50;99.90;;;;;;5091780;28;20031;-51
2023/10/03 01:35:33;;;;;;;21.02;7.05;;;20.50;99.90;;;;;;5073408;28;20044;-54
2023/10/03 01:37:59;;;;;;;23.35;7.07;;;20.50;99.90;;;;;;5073250;28;20381;-53
2023/10/03 01:40:26;;;;;;;24.45;7.63;;;20.40;99.90;;;;;;5073153;28;20031;-55
2023/10/03 01:42:52;;;;;;;23.30;6.90;;;20.50;99.90;;;;;;5073088;28;20044;-54
2023/10/03 01:45:26;;;;;;;20.88;7.03;;;20.40;99.90;;;;;;5091341;28;20020;-52
2023/10/03 01:47:53;;;;;;;18.40;7.05;;;20.40;99.90;;;;;;5073143;28;20039;-54
2023/10/03 01:50:20;;;;;;;22.50;7.28;;;20.40;99.90;;;;;;5091235;28;20039;-53
2023/10/03 01:52:47;;;;;;;17.55;6.63;;;20.40;99.90;;;;;;5073004;28;20028;-54
2023/10/03 01:55:17;;;;;;;21.98;7.30;;;20.40;99.90;;;;;;5073145;28;20024;-54
2023/10/03 01:57:45;;;;;;;20.55;7.25;;;20.40;99.90;;;;;;5072940;28;20032;-54
2023/10/03 02:00:25;;;;;;;20.65;6.53;;;20.30;99.90;;;;;;5056188;28;20028;-54
2023/10/03 02:03:01;;;;;;;20.17;6.70;;;20.40;99.90;;;;;;5072738;28;20430;-52
2023/10/03 02:05:27;;;;;;;19.70;6.25;;;20.30;99.90;;;;;;5091218;28;20032;-55
2023/10/03 02:07:55;;;;;;;22.23;7.50;;;20.40;99.90;;;;;;5072792;28;20080;-54
2023/10/03 02:10:21;;;;;;;23.98;7.63;;;20.30;99.90;;;;;;5072773;28;20165;-51
2023/10/03 02:12:50;;;;;;;21.15;6.57;;;20.30;99.90;;;;;;5090003;28;20388;-53
2023/10/03 02:15:21;;;;;;;18.73;6.35;;;20.40;99.90;;;;;;5072788;28;20032;-51
2023/10/03 02:17:50;;;;;;;21.67;6.40;;;20.30;99.90;;;;;;5056127;28;20024;-54
2023/10/03 02:20:20;;;;;;;18.92;6.05;;;20.40;99.90;;;;;;5056144;28;20032;-52
2023/10/03 02:22:54;;;;;;;22.00;6.88;;;20.40;99.90;;;;;;5072351;28;20073;-52
2023/10/03 02:25:29;;;;;;;18.58;6.10;;;20.50;99.90;;;;;;5090875;28;20043;-51
2023/10/03 02:27:56;;;;;;;19.42;7.03;;;20.50;99.90;;;;;;5090832;28;20025;-54
2023/10/03 02:30:23;;;;;;;22.15;6.90;;;20.40;99.90;;;;;;5090640;28;20016;-50
2023/10/03 02:32:53;;;;;;;22.83;7.15;;;20.50;99.90;;;;;;5072576;28;20040;-50
2023/10/03 02:35:24;;;;;;;19.35;6.03;;;20.50;99.90;;;;;;5072574;28;20032;-50
2023/10/03 02:37:52;;;;;;;17.65;6.50;;;20.50;99.90;;;;;;5072549;28;20032;-50
2023/10/03 02:40:22;;;;;;;21.50;7.13;;;20.50;99.90;;;;;;5090821;28;20032;-51
2023/10/03 02:42:50;;;;;;;19.98;6.53;;;20.50;99.90;;;;;;5090454;28;20063;-52
2023/10/03 02:45:17;;;;;;;18.77;6.97;;;20.50;99.90;;;;;;5090671;28;20051;-51
2023/10/03 02:47:44;;;;;;;18.48;5.75;;;20.60;99.90;;;;;;5072482;28;20111;-51
2023/10/03 02:50:12;;;;;;;18.13;6.55;;;20.60;99.90;;;;;;5072318;28;20444;-53
2023/10/03 02:52:39;;;;;;;19.43;7.27;;;20.60;99.90;;;;;;5071267;28;20566;-51
2023/10/03 02:55:09;;;;;;;17.88;6.50;;;20.60;99.90;;;;;;5061810;28;20051;-50
2023/10/03 02:57:38;;;;;;;16.98;5.97;;;20.60;99.90;;;;;;5061008;28;20557;-50
2023/10/03 03:00:24;;;;;;;19.15;6.90;;;20.70;99.90;;;;;;5072266;28;20494;-51
2023/10/03 03:02:50;;;;;;;15.48;5.75;;;20.70;99.90;;;;;;5072085;28;20032;-50
2023/10/03 03:05:22;;;;;;;21.45;6.72;;;20.60;99.90;;;;;;5072376;28;20030;-52
2023/10/03 03:07:49;;;;;;;19.48;6.25;;;20.60;99.90;;;;;;5090404;28;20035;-50
2023/10/03 03:10:18;;;;;;;19.17;6.55;;;20.60;99.90;;;;;;5072102;28;20028;-53
2023/10/03 03:12:47;;;;;;;17.08;6.40;;;20.60;99.90;;;;;;5072101;28;20032;-51
2023/10/03 03:15:22;;;;;;;20.02;6.53;;;20.70;99.90;;;;;;5072386;28;20032;-52
2023/10/03 03:17:53;;;;;;;19.98;6.57;;;20.70;99.90;;;;;;5090746;28;20471;-53
2023/10/03 03:20:28;;;;;;;18.80;6.50;;;20.70;99.90;;;;;;5090211;28;20595;-54
2023/10/03 03:22:59;;;;;;;19.95;6.43;;;20.70;99.90;;;;;;5090536;28;20387;-53
2023/10/03 03:25:42;;;;;;;18.92;6.10;;;20.80;99.90;;;;;;5094207;28;20036;-51
2023/10/03 03:28:13;;;;;;;20.17;6.80;;;20.80;99.90;;;;;;5094353;28;20436;-53
2023/10/03 03:30:46;;;;;;;14.77;5.43;;;20.80;99.90;;;;;;5094225;28;20443;-51
2023/10/03 03:33:19;;;;;;;15.30;5.72;;;20.90;99.90;;;;;;5093941;28;20668;-55
2023/10/03 03:35:47;;;;;;;17.50;5.93;;;20.90;99.90;;;;;;5093997;28;20499;-50
2023/10/03 03:38:18;;;;;;;17.38;6.47;;;20.90;99.90;;;;;;5093974;28;20039;-50
2023/10/03 03:40:55;;;;;;;19.15;6.28;;;20.90;99.90;;;;;;5093829;28;20043;-51
2023/10/03 03:43:22;;;;;;;17.65;5.55;;;21.00;99.90;;;;;;5093844;28;20084;-53
2023/10/03 03:45:48;;;;;;;17.30;6.15;;;21.00;99.90;;;;;;5093966;28;20024;-53
2023/10/03 03:48:14;;;;;;;20.10;6.57;;;21.00;99.90;;;;;;5093623;28;20028;-54
2023/10/03 03:50:41;;;;;;;18.63;6.28;;;21.00;99.90;;;;;;5093671;28;20020;-54
2023/10/03 03:53:07;;;;;;;20.63;6.63;;;21.00;99.90;;;;;;5093577;28;20020;-53
2023/10/03 03:55:35;;;;;;;17.20;6.57;;;20.90;99.90;;;;;;5093605;28;20032;-54
2023/10/03 03:58:05;;;;;;;19.02;6.40;;;20.90;99.90;;;;;;5093552;28;20472;-50
2023/10/03 04:00:32;;;;;;;18.75;5.82;;;20.90;99.90;;;;;;5093941;28;20032;-51
2023/10/03 04:02:59;;;;;;;18.13;6.32;;;20.80;99.90;;;;;;5093137;28;20101;-51
2023/10/03 04:05:31;;;;;;;19.63;5.78;;;20.80;99.90;;;;;;5093590;28;20017;-51
2023/10/03 04:07:59;;;;;;;17.73;6.32;;;20.80;99.90;;;;;;5093375;28;20040;-51
2023/10/03 04:10:26;;;;;;;19.05;6.68;;;20.80;99.90;;;;;;5093610;28;20035;-52
2023/10/03 04:12:52;;;;;;;18.02;5.95;;;20.70;99.90;;;;;;5093648;28;20039;-51
2023/10/03 04:15:20;;;;;;;20.25;6.72;;;20.70;99.90;;;;;;5093443;28;20028;-54
2023/10/03 04:17:48;;;;;;;16.55;6.20;;;20.70;99.90;;;;;;5093422;28;20040;-52
2023/10/03 04:22:52;;;;;;;19.20;7.03;;;20.70;99.90;;;;;;5093289;28;20050;-53
2023/10/03 04:25:22;;;;;;;21.23;6.68;;;20.70;99.90;;;;;;5093314;28;20069;-54
2023/10/03 04:27:49;;;;;;;17.83;5.88;;;20.70;99.90;;;;;;5092863;28;20476;-51
2023/10/03 04:30:16;;;;;;;19.92;6.05;;;20.60;99.90;;;;;;5092836;28;20106;-50
2023/10/03 04:32:42;;;;;;;20.30;6.82;;;20.60;99.90;;;;;;5092755;28;20115;-54
2023/10/03 04:35:12;;;;;;;18.70;5.55;;;20.50;99.90;;;;;;5092014;28;20036;-53
2023/10/03 04:37:42;;;;;;;18.15;6.00;;;20.50;99.90;;;;;;5092695;28;20028;-51
2023/10/03 04:40:34;;;;;;;16.45;6.13;;;20.50;99.90;;;;;;5092781;28;20043;-54
2023/10/03 04:42:58;;;;;;;17.00;5.82;;;20.60;99.90;;;;;;5091865;28;20468;-52
2023/10/03 04:45:25;;;;;;;17.63;5.95;;;20.50;99.90;;;;;;5092692;28;20034;-51
2023/10/03 04:47:51;;;;;;;15.63;5.65;;;20.50;99.90;;;;;;5092531;28;20024;-50
2023/10/03 04:50:18;;;;;;;18.85;5.57;;;20.50;99.90;;;;;;5092334;28;20031;-53
2023/10/03 04:52:48;;;;;;;17.60;6.20;;;20.50;99.90;;;;;;5092724;28;20119;-51
2023/10/03 04:55:19;;;;;;;20.02;6.53;;;20.50;99.90;;;;;;5092581;28;20065;-50
2023/10/03 04:57:46;;;;;;;19.92;6.60;;;20.50;99.90;;;;;;5074454;28;20028;-50
2023/10/03 05:00:15;;;;;;;21.30;6.13;;;20.50;99.90;;;;;;5092168;28;20028;-54
2023/10/03 05:02:47;;;;;;;17.80;6.20;;;20.50;99.90;;;;;;5091654;28;20043;-51
2023/10/03 05:05:18;;;;;;;19.60;6.05;;;20.60;99.90;;;;;;5092726;28;20392;-51
2023/10/03 05:07:44;;;;;;;16.73;6.05;;;20.60;99.90;;;;;;5092549;28;20081;-50
2023/10/03 05:10:10;;;;;;;17.27;6.13;;;20.60;99.90;;;;;;5092428;28;20365;-51
2023/10/03 05:12:37;;;;;;;18.10;5.75;;;20.50;99.90;;;;;;5092388;28;20105;-52
2023/10/03 05:15:06;;;;;;;19.98;5.85;;;20.60;99.90;;;;;;5092343;28;20035;-52
2023/10/03 05:17:32;;;;;;;;;;;20.50;99.90;;;;;;5092886;28;20040;-55
2023/10/03 05:19:59;;;;;;;15.98;5.40;;;20.50;99.90;;;;;;5092166;28;20269;-53
2023/10/03 05:22:25;;;;;;;17.00;4.97;;;20.60;99.90;;;;;;5092026;28;20488;-51
2023/10/03 05:24:52;;;;;;;15.75;5.30;;;20.50;99.90;;;;;;5092072;28;20484;-50
2023/10/03 05:27:18;;;;;;;15.90;5.57;;;20.50;99.90;;;;;;5092263;28;20028;-52
2023/10/03 05:29:44;;;;;;;15.38;5.10;;;20.50;99.90;;;;;;5091878;28;20035;-52
2023/10/03 05:32:09;;;;;;;16.40;5.57;;;20.50;99.90;;;;;;5085663;28;20403;-52
2023/10/03 05:34:35;;;;;;;14.40;5.40;;;20.50;99.90;;;;;;5080964;28;20037;-51
2023/10/03 05:37:01;;;;;;;13.18;4.40;;;20.60;99.90;;;;;;5081309;28;20031;-53
2023/10/03 05:39:26;;;;;;;15.05;5.00;;;20.70;99.90;;;;;;5084898;28;20028;-50
2023/10/03 05:42:00;;;;;;;14.20;5.32;;;20.80;99.90;;;;;;5091695;28;20071;-50
2023/10/03 05:44:26;;;;;;;14.20;5.30;;;20.80;99.90;;;;;;5092009;28;20028;-52
2023/10/03 05:46:57;;;;;;;13.55;4.93;;;20.80;99.90;;;;;;5091825;28;20055;-50
2023/10/03 05:49:24;;;;;;;16.52;5.15;;;20.90;99.90;;;;;;5091575;28;20028;-52
2023/10/03 05:51:55;;;;;;;13.02;4.50;;;20.90;99.90;;;;;;5091492;28;20121;-50
2023/10/03 05:54:23;;;;;;;14.05;4.45;;;20.90;99.90;;;;;;5091396;28;20032;-51
2023/10/03 05:56:49;;;;;;;15.63;4.95;;;20.90;99.90;;;;;;5091340;28;20047;-50
2023/10/03 05:59:15;;;;;;;15.38;4.72;;;20.90;99.90;;;;;;5090925;28;20121;-53
2023/10/03 06:01:42;;;;;;;15.52;4.50;;;20.90;99.90;;;;;;5090946;28;20063;-52
2023/10/03 06:04:08;;;;;;;14.23;4.95;;;21.00;99.90;;;;;;5091269;28;20047;-51
2023/10/03 06:06:34;;;;;;;27.95;6.15;;;21.00;99.90;;;;;;5091386;28;20469;-51
2023/10/03 06:09:01;;;;;;;22.85;10.27;;;20.90;99.90;;;;;;5090824;28;20047;-52
2023/10/03 06:11:26;;;;;;;18.02;6.43;;;20.90;99.90;;;;;;5090864;28;20396;-53
2023/10/03 06:13:52;;;;;;;14.93;5.35;;;21.00;99.90;;;;;;5091054;28;20020;-54
2023/10/03 06:16:18;;;;;;;21.13;9.85;;;20.90;99.90;;;;;;5090996;28;20051;-53
2023/10/03 06:18:44;;;;;;;15.02;5.78;;;20.90;99.90;;;;;;5078225;28;20017;-52
2023/10/03 06:21:10;;;;;;;15.57;6.25;;;20.90;99.90;;;;;;5080291;28;20028;-50
2023/10/03 06:23:37;;;;;;;13.38;5.15;;;20.90;99.90;;;;;;5075961;28;20564;-53
2023/10/03 06:26:03;;;;;;;16.60;5.22;;;20.80;99.90;;;;;;5078091;28;20440;-54
2023/10/03 06:28:29;;;;;;;13.65;4.75;;;20.90;99.90;;;;;;5082847;28;20396;-50
2023/10/03 06:30:55;;;;;;;13.63;5.03;;;20.80;99.90;;;;;;5061858;28;20111;-51
2023/10/03 06:33:21;;;;;;;15.77;6.20;;;20.80;99.90;;;;;;5080521;28;20379;-51
2023/10/03 06:35:50;;;;;;;14.40;6.78;;;20.80;99.90;;;;;;5079948;28;20028;-55
2023/10/03 06:38:17;;;;;;;11.52;4.53;;;20.80;99.90;;;;;;5085646;28;20177;-53
2023/10/03 06:40:43;;;;;;;16.90;8.02;;;20.80;99.90;;;;;;5081205;28;20393;-54
2023/10/03 06:43:09;;;;;;;11.75;4.70;;;20.80;99.90;;;;;;5078882;28;20040;-51
2023/10/03 06:45:35;;;;;;;14.18;5.75;;;20.70;99.90;;;;;;5086292;28;20023;-51
2023/10/03 06:48:03;;;;;;;13.38;4.25;;;20.70;99.90;;;;;;5078549;28;20113;-52
2023/10/03 06:50:32;;;;;;;14.52;5.10;;;20.70;99.90;;;;;;5080663;28;20070;-51
2023/10/03 06:52:58;;;;;;;;;;;20.70;99.90;;;;;;5079432;28;20047;-52
2023/10/03 06:55:24;;;;;;;11.68;4.32;;;20.70;99.90;;;;;;5079128;28;19912;-54
2023/10/03 06:57:50;;;;;;;11.40;4.47;;;20.60;99.90;;;;;;5081391;28;20030;-53
2023/10/03 07:00:17;;;;;;;9.02;3.47;;;20.60;99.90;;;;;;5087806;28;20081;-52
2023/10/03 07:02:44;;;;;;;11.60;5.10;;;20.50;99.90;;;;;;5081933;28;20028;-50
2023/10/03 07:05:11;;;;;;;12.65;5.32;;;20.50;99.90;;;;;;5085060;28;20024;-51
2023/10/03 07:07:37;;;;;;;7.53;3.50;;;20.40;99.90;;;;;;5083406;28;20120;-48
2023/10/03 07:10:04;;;;;;;8.27;3.15;;;20.40;99.90;;;;;;5084177;28;20061;-53
2023/10/03 07:12:29;;;;;;;9.35;3.83;;;20.40;99.90;;;;;;5085864;28;20519;-52
2023/10/03 07:14:55;;;;;;;6.72;3.05;;;20.40;99.90;;;;;;5083618;28;20059;-53
2023/10/03 07:17:22;;;;;;;7.03;2.83;;;20.40;99.90;;;;;;5084897;28;20353;-53
2023/10/03 07:19:48;;;;;;;6.10;2.78;;;20.40;99.90;;;;;;5082561;28;20028;-49
2023/10/03 07:22:20;;;;;;;6.63;3.13;;;20.30;99.90;;;;;;5082354;28;20028;-50
2023/10/03 07:24:45;;;;;;;6.60;3.13;;;20.30;99.90;;;;;;5082402;28;20028;-50
2023/10/03 07:27:15;;;;;;;6.35;2.90;;;20.40;99.90;;;;;;5074370;28;20085;-50
2023/10/03 07:29:43;;;;;;;8.52;2.90;;;20.40;99.90;;;;;;5074060;28;20035;-49
2023/10/03 07:32:12;;;;;;;7.90;2.92;;;20.40;99.90;;;;;;5074326;28;20119;-53
2023/10/03 07:34:42;;;;;;;6.38;3.03;;;20.40;99.90;;;;;;5056522;28;20032;-53
2023/10/03 07:37:09;;;;;;;8.07;3.17;;;20.30;99.90;;;;;;5074150;28;20130;-52
2023/10/03 07:39:35;;;;;;;5.07;2.33;;;20.30;99.90;;;;;;5074403;28;20083;-53
2023/10/03 07:42:04;;;;;;;6.60;2.88;;;20.30;99.90;;;;;;5076512;28;20024;-50
2023/10/03 07:44:30;;;;;;;5.20;2.38;;;20.30;99.90;;;;;;5083715;28;20028;-52
2023/10/03 07:46:56;;;;;;;4.97;2.67;;;20.30;99.90;;;;;;5084475;28;20024;-53
2023/10/03 07:49:22;;;;;;;6.15;3.35;;;20.30;99.90;;;;;;5084994;28;20125;-50
2023/10/03 07:51:50;;;;;;;10.27;3.20;;;20.20;99.90;;;;;;5083021;28;20032;-50
2023/10/03 07:54:19;;;;;;;9.85;3.03;;;20.20;99.90;;;;;;5084345;28;20498;-52
2023/10/03 07:56:45;;;;;;;6.20;2.55;;;20.10;99.90;;;;;;5085250;28;20060;-54
2023/10/03 07:59:10;;;;;;;7.05;3.10;;;20.10;99.90;;;;;;5083390;28;20101;-53
2023/10/03 08:01:39;;;;;;;8.05;3.15;;;20.10;99.90;;;;;;5075854;28;20086;-51
2023/10/03 08:04:08;;;;;;;8.32;3.08;;;20.10;99.90;;;;;;5074699;28;20021;-51
2023/10/03 08:06:34;;;;;;;8.32;3.15;;;20.10;99.90;;;;;;5084115;28;20031;-54
2023/10/03 08:09:00;;;;;;;6.90;2.95;;;20.10;99.90;;;;;;5083050;28;20499;-51
2023/10/03 08:11:30;;;;;;;8.32;2.65;;;20.10;99.90;;;;;;5081666;28;20025;-52
2023/10/03 08:13:56;;;;;;;7.50;2.97;;;20.10;99.90;;;;;;5067723;28;20020;-53
2023/10/03 08:16:22;;;;;;;7.55;3.72;;;20.00;99.90;;;;;;5077891;28;20373;-52
2023/10/03 08:18:57;;;;;;;7.18;2.65;;;20.00;99.90;;;;;;5086884;28;20042;-54
2023/10/03 08:21:27;;;;;;;6.18;2.60;;;20.00;99.90;;;;;;5083434;28;20050;-53
2023/10/03 08:23:54;;;;;;;7.07;2.90;;;20.00;99.90;;;;;;5050126;28;20023;-50
2023/10/03 08:26:21;;;;;;;5.15;3.10;;;20.00;99.90;;;;;;5083483;28;20488;-53
2023/10/03 08:28:59;;;;;;;6.93;3.00;;;19.90;99.90;;;;;;5082861;28;20536;-53
2023/10/03 08:31:26;;;;;;;6.28;3.17;;;19.90;99.90;;;;;;5092153;28;20032;-52
2023/10/03 08:33:55;;;;;;;6.70;3.10;;;19.90;99.90;;;;;;5094513;28;20036;-53
2023/10/03 08:36:22;;;;;;;5.28;2.78;;;19.90;99.90;;;;;;5093946;28;20036;-52
2023/10/03 08:38:49;;;;;;;6.40;3.33;;;19.90;99.90;;;;;;5093012;28;20504;-53
2023/10/03 08:41:23;;;;;;;6.70;3.17;;;19.90;99.90;;;;;;5093595;28;20032;-53
2023/10/03 08:43:55;;;;;;;6.90;3.10;;;19.80;99.90;;;;;;5094085;28;20480;-53
2023/10/03 08:46:28;;;;;;;6.93;3.15;;;19.80;99.90;;;;;;5090513;28;20025;-53
2023/10/03 08:49:00;;;;;;;7.30;3.28;;;19.80;99.90;;;;;;5091285;28;20532;-54
2023/10/03 08:51:32;;;;;;;5.32;2.55;;;19.80;99.90;;;;;;5093397;28;20103;-52
2023/10/03 08:54:10;;;;;;;6.50;2.90;;;19.70;99.90;;;;;;5093312;28;20031;-54
2023/10/03 08:56:36;;;;;;;6.63;2.70;;;19.60;99.90;;;;;;5093018;28;20487;-51
2023/10/03 08:59:09;;;;;;;8.70;2.72;;;19.50;99.90;;;;;;5080039;28;20044;-54
2023/10/03 09:01:43;;;;;;;8.70;3.17;;;19.50;99.90;;;;;;5080467;28;20166;-54
2023/10/03 09:04:15;;;;;;;6.00;2.83;;;19.40;99.90;;;;;;5076628;28;20036;-52
2023/10/03 09:06:47;;;;;;;6.28;3.00;;;19.40;99.90;;;;;;5074787;28;20039;-54
2023/10/03 09:09:14;;;;;;;7.38;3.25;;;19.40;99.90;;;;;;5077692;28;20028;-51
2023/10/03 09:11:45;;;;;;;8.57;3.22;;;19.40;99.90;;;;;;5089078;28;20076;-51
2023/10/03 09:14:19;;;;;;;6.47;3.10;;;19.50;99.90;;;;;;5080136;28;20036;-54
2023/10/03 09:16:53;;;;;;;5.43;2.72;;;19.50;99.90;;;;;;5071738;28;20512;-51
2023/10/03 09:19:23;;;;;;;6.22;2.75;;;19.50;99.90;;;;;;5077836;28;20035;-50
2023/10/03 09:21:53;;;;;;;7.28;3.08;;;19.50;99.90;;;;;;5082746;28;20055;-49
2023/10/03 09:24:25;;;;;;;6.20;3.25;;;19.60;99.90;;;;;;5080260;28;20404;-52
2023/10/03 09:26:54;;;;;;;7.25;3.10;;;19.60;99.90;;;;;;5074763;28;20035;-49
2023/10/03 09:29:30;;;;;;;7.15;3.20;;;19.70;99.90;;;;;;5080641;28;20127;-51
2023/10/03 09:32:07;;;;;;;7.03;2.53;;;19.70;99.90;;;;;;5055578;28;20040;-52
2023/10/03 09:34:34;;;;;;;6.22;2.78;;;19.60;99.90;;;;;;5077129;28;20404;-53
2023/10/03 09:37:03;;;;;;;5.63;2.90;;;19.60;99.90;;;;;;5076418;28;20042;-54
2023/10/03 09:39:29;;;;;;;;;;;19.70;99.90;;;;;;5072440;28;20037;-54
2023/10/03 09:41:55;;;;;;;7.18;2.78;;;19.60;99.90;;;;;;5071879;28;19957;-51
2023/10/03 09:44:29;;;;;;;11.13;3.20;;;19.60;99.90;;;;;;5072097;28;20107;-52
2023/10/03 09:47:06;;;;;;;7.57;2.85;;;19.60;99.90;;;;;;5072257;28;20119;-52
2023/10/03 09:49:39;;;;;;;5.18;2.83;;;19.60;99.90;;;;;;5071971;28;20024;-50
2023/10/03 09:52:07;;;;;;;5.38;2.60;;;19.70;99.90;;;;;;5071871;28;20040;-50
2023/10/03 09:54:39;;;;;;;15.30;4.95;;;19.60;99.90;;;;;;5072177;28;20134;-53
2023/10/03 09:57:16;;;;;;;8.85;3.95;;;19.40;99.90;;;;;;5071697;28;20036;-52
2023/10/03 09:59:49;;;;;;;5.88;3.45;;;19.20;99.90;;;;;;5071244;28;20035;-52
2023/10/03 10:02:16;;;;;;;7.78;3.35;;;18.70;99.90;;;;;;5071407;28;20108;-53
2023/10/03 10:04:45;;;;;;;7.72;3.45;;;18.30;99.90;;;;;;5071760;28;20024;-51
2023/10/03 10:07:29;;;;;;;7.28;4.03;;;18.00;99.90;;;;;;5071512;28;20040;-53
2023/10/03 10:10:09;;;;;;;10.35;4.20;;;17.90;99.90;;;;;;5071400;28;20060;-50
2023/10/03 10:12:40;;;;;;;6.90;4.28;;;17.70;99.90;;;;;;5071470;28;20020;-50
2023/10/03 10:17:51;;;;;;;9.98;4.68;;;17.70;99.90;;;;;;5071286;28;20473;-53
2023/10/03 10:20:38;;;;;;;10.98;5.63;;;17.60;99.90;;;;;;5071291;28;20043;-55
2023/10/03 10:23:06;;;;;;;9.85;5.50;;;17.70;99.90;;;;;;5070908;28;20035;-54
2023/10/03 10:25:38;;;;;;;11.75;5.95;;;17.70;99.90;;;;;;5071167;28;20032;-55
2023/10/03 10:28:08;;;;;;;9.43;5.68;;;17.60;99.90;;;;;;5071124;28;20064;-54
2023/10/03 10:30:39;;;;;;;11.05;6.25;;;17.70;99.90;;;;;;5071262;28;20104;-54
2023/10/03 10:33:17;;;;;;;9.55;5.32;;;17.70;99.90;;;;;;5070337;28;20421;-52
2023/10/03 10:36:00;;;;;;;12.25;6.43;;;17.70;99.90;;;;;;5053201;28;20036;-53
2023/10/03 10:38:31;;;;;;;10.55;6.18;;;17.80;99.90;;;;;;5070902;28;20485;-53
2023/10/03 10:41:21;;;;;;;13.00;6.65;;;17.80;99.90;;;;;;5071026;28;20024;-54
2023/10/03 10:44:10;;;;;;;8.95;5.47;;;17.90;99.90;;;;;;5071586;28;20032;-54
2023/10/03 10:46:56;;;;;;;10.07;6.30;;;17.90;99.90;;;;;;5071177;28;20032;-52
2023/10/03 10:49:30;;;;;;;9.20;4.55;;;18.00;99.90;;;;;;5070947;28;20095;-52
2023/10/03 10:52:07;;;;;;;12.32;6.07;;;18.00;99.90;;;;;;5070861;28;20546;-53
2023/10/03 10:54:42;;;;;;;11.43;5.47;;;18.10;99.90;;;;;;5071147;28;20086;-52
2023/10/03 10:57:16;;;;;;;7.10;4.40;;;18.00;99.90;;;;;;5071002;28;20029;-53
2023/10/03 10:59:43;;;;;;;5.20;3.25;;;17.90;99.90;;;;;;5070860;28;20040;-50
2023/10/03 11:02:21;;;;;;;6.15;2.50;;;17.80;99.90;;;;;;5070755;28;20045;-52
2023/10/03 11:04:57;;;;;;;4.05;1.73;;;17.80;99.90;;;;;;5071110;28;20036;-54
2023/10/03 11:07:26;;;;;;;1.20;0.80;;;17.70;99.90;;;;;;5070912;28;20058;-54
2023/10/03 11:09:54;;;;;;;1.42;0.70;;;17.70;99.90;;;;;;5070724;28;20021;-53
2023/10/03 11:12:23;;;;;;;3.08;0.65;;;17.60;99.90;;;;;;5070842;28;20111;-53
2023/10/03 11:14:49;;;;;;;1.77;0.60;;;17.50;99.90;;;;;;5070912;28;20492;-54
2023/10/03 11:17:15;;;;;;;5.70;1.00;;;17.50;99.90;;;;;;5070648;28;20043;-52
2023/10/03 11:19:41;;;;;;;3.53;0.60;;;17.50;99.90;;;;;;5070748;28;20115;-52
2023/10/03 11:22:11;;;;;;;3.00;0.60;;;17.50;99.90;;;;;;5070544;28;20028;-51
2023/10/03 11:24:41;;;;;;;1.70;0.50;;;17.40;99.90;;;;;;5052480;28;20047;-54
2023/10/03 11:27:07;;;;;;;1.38;0.85;;;17.50;99.90;;;;;;5071043;28;20029;-55
2023/10/03 11:29:41;;;;;;;2.60;0.60;;;17.50;99.90;;;;;;5070581;28;20473;-52
2023/10/03 11:32:17;;;;;;;3.63;0.95;;;17.60;99.90;;;;;;5052498;28;20032;-50
2023/10/03 11:34:43;;;;;;;4.43;0.55;;;17.60;99.90;;;;;;5070633;28;20587;-54
2023/10/03 11:37:09;;;;;;;1.45;0.70;;;17.60;99.90;;;;;;5070541;28;20032;-51
2023/10/03 11:39:38;;;;;;;2.35;0.70;;;17.60;99.90;;;;;;5070089;28;20048;-54
2023/10/03 11:42:24;;;;;;;2.28;0.65;;;17.60;99.90;;;;;;5070366;28;20041;-53
2023/10/03 11:45:00;;;;;;;4.25;1.17;;;17.70;99.90;;;;;;5072538;28;20039;-52
2023/10/03 11:47:26;;;;;;;2.08;0.80;;;17.70;99.90;;;;;;5079603;28;20397;-55
2023/10/03 11:49:52;;;;;;;3.03;0.93;;;17.70;99.90;;;;;;5073945;28;20089;-54
2023/10/03 11:52:18;;;;;;;2.30;0.95;;;17.70;99.90;;;;;;5073802;28;20420;-52
2023/10/03 11:54:45;;;;;;;1.73;0.90;;;17.80;99.90;;;;;;5082638;28;20036;-51
2023/10/03 11:57:12;;;;;;;2.10;1.10;;;17.70;99.90;;;;;;5076079;28;20056;-52
2023/10/03 11:59:40;;;;;;;3.45;0.80;;;17.70;99.90;;;;;;5083167;28;20472;-51
2023/10/03 12:02:06;;;;;;;2.67;1.00;;;17.80;99.90;;;;;;5077911;28;20963;-54
2023/10/03 12:04:38;;;;;;;3.45;0.90;;;17.70;99.90;;;;;;5065043;28;20024;-55
2023/10/03 12:07:04;;;;;;;3.67;1.02;;;17.70;99.90;;;;;;5084962;28;20433;-50
2023/10/03 12:09:30;;;;;;;1.77;0.98;;;17.60;99.90;;;;;;5081713;28;20035;-52
2023/10/03 12:11:57;;;;;;;1.35;0.60;;;17.50;99.90;;;;;;5088152;28;20503;-51
2023/10/03 12:14:23;;;;;;;0.93;0.50;;;17.50;99.90;;;;;;5078444;28;20028;-52
2023/10/03 12:16:51;;;;;;;1.27;0.60;;;17.30;99.90;;;;;;5073278;28;20037;-52
2023/10/03 12:19:21;;;;;;;2.10;0.55;;;17.30;99.90;;;;;;5075318;28;20033;-54
2023/10/03 12:21:47;;;;;;;2.13;0.40;;;17.40;99.90;;;;;;5078821;28;20514;-53
2023/10/03 12:24:12;;;;;;;2.05;0.60;;;17.30;99.90;;;;;;5069500;28;20162;-53
2023/10/03 12:26:38;;;;;;;1.33;0.60;;;17.30;99.90;;;;;;5060082;28;20115;-52
2023/10/03 12:29:04;;;;;;;2.08;0.73;;;17.30;99.90;;;;;;5078361;28;20071;-52
2023/10/03 12:31:34;;;;;;;2.97;1.35;;;17.30;99.90;;;;;;5081246;28;20056;-54
2023/10/03 12:34:01;;;;;;;2.65;1.27;;;17.30;99.90;;;;;;5054812;28;20521;-50
2023/10/03 12:36:32;;;;;;;3.55;1.42;;;17.30;99.90;;;;;;5073222;28;20058;-50
2023/10/03 12:39:10;;;;;;;3.00;1.10;;;17.30;99.90;;;;;;5074014;28;20031;-53
2023/10/03 12:41:36;;;;;;;6.72;2.38;;;17.30;99.90;;;;;;5054400;28;20036;-53
2023/10/03 12:44:02;;;;;;;3.53;1.40;;;17.30;99.90;;;;;;5072412;28;20033;-49
2023/10/03 12:46:28;;;;;;;4.85;1.17;;;17.30;99.90;;;;;;5072882;28;20046;-54
2023/10/03 12:48:54;;;;;;;3.72;1.40;;;17.10;99.90;;;;;;5072149;28;20457;-53
2023/10/03 12:51:20;;;;;;;1.73;1.20;;;17.00;99.90;;;;;;5072172;28;20029;-51
2023/10/03 12:53:45;;;;;;;3.88;1.30;;;16.90;99.90;;;;;;5072669;28;20032;-53
2023/10/03 12:56:11;;;;;;;4.72;1.48;;;16.80;99.90;;;;;;5071874;28;20028;-51
2023/10/03 12:58:38;;;;;;;3.13;1.63;;;16.80;99.90;;;;;;5072709;28;20078;-50
2023/10/03 13:01:04;;;;;;;4.40;1.13;;;16.80;99.90;;;;;;5072595;28;20029;-51